createdAt,value
2016-06-15T00:00:17.378Z,14.2
2016-06-15T00:01:17.225Z,14.25
2016-06-15T00:02:17.369Z,14.18
2016-06-15T00:03:17.388Z,14.18
2016-06-15T00:04:17.828Z,14.21
2016-06-15T00:05:17.284Z,14.21
2016-06-15T00:06:18.772Z,14.22
2016-06-15T00:07:17.962Z,14.2
2016-06-15T00:08:18.262Z,14.22
2016-06-15T00:09:17.343Z,14.24
2016-06-15T00:10:17.503Z,14.22
2016-06-15T00:11:17.849Z,14.22
2016-06-15T00:12:17.353Z,14.24
2016-06-15T00:13:17.339Z,14.18
2016-06-15T00:14:17.343Z,14.2
2016-06-15T00:15:17.393Z,14.21
2016-06-15T00:16:17.349Z,14.21
2016-06-15T00:17:17.337Z,14.21
2016-06-15T00:18:17.340Z,14.27
2016-06-15T00:19:17.874Z,14.22
2016-06-15T00:20:17.846Z,14.21
2016-06-15T00:21:17.537Z,14.24
2016-06-15T00:22:17.727Z,14.24
2016-06-15T00:23:17.325Z,14.21
2016-06-15T00:24:18.108Z,14.21
2016-06-15T00:25:18.518Z,14.25
2016-06-15T00:26:17.895Z,14.22
2016-06-15T00:27:17.462Z,14.2
2016-06-15T00:28:17.323Z,14.15
2016-06-15T00:29:17.311Z,14.14
2016-06-15T00:30:17.329Z,14.17
2016-06-15T00:32:18.820Z,14.04
2016-06-15T00:33:18.089Z,14.03
2016-06-15T00:34:17.295Z,14.04
2016-06-15T00:35:17.314Z,14.04
2016-06-15T00:36:17.302Z,14.03
2016-06-15T00:37:17.288Z,14.03
2016-06-15T00:38:17.291Z,13.91
2016-06-15T00:39:17.295Z,13.87
2016-06-15T00:40:17.283Z,13.89
2016-06-15T00:41:17.285Z,13.89
2016-06-15T00:42:17.289Z,13.92
2016-06-15T00:43:17.276Z,13.91
2016-06-15T00:44:17.279Z,13.88
2016-06-15T00:45:17.282Z,13.84
2016-06-15T00:46:17.270Z,13.88
2016-06-15T00:47:17.273Z,13.87
2016-06-15T00:48:17.276Z,13.84
2016-06-15T00:49:17.263Z,13.91
2016-06-15T00:50:17.578Z,13.87
2016-06-15T00:51:17.270Z,13.85
2016-06-15T00:52:17.256Z,13.92
2016-06-15T00:53:17.260Z,13.91
2016-06-15T00:54:17.248Z,13.87
2016-06-15T00:55:17.094Z,13.89
2016-06-15T00:56:17.254Z,13.89
2016-06-15T00:57:17.257Z,13.87
2016-06-15T00:58:17.275Z,13.88
2016-06-15T00:59:17.314Z,13.87
2016-06-15T01:00:17.354Z,13.87
2016-06-15T01:01:17.377Z,14.03
2016-06-15T01:02:17.416Z,14.06
2016-06-15T01:03:17.266Z,14.03
2016-06-15T01:04:17.438Z,14.03
2016-06-15T01:05:17.501Z,14.02
2016-06-15T01:06:17.454Z,14.09
2016-06-15T01:07:17.486Z,14.07
2016-06-15T01:08:17.479Z,14.15
2016-06-15T01:09:17.473Z,14.1
2016-06-15T01:10:17.480Z,14.12
2016-06-15T01:11:17.489Z,14.17
2016-06-15T01:12:17.480Z,14.22
2016-06-15T01:13:17.486Z,14.17
2016-06-15T01:14:17.490Z,14.18
2016-06-15T01:15:17.511Z,14.21
2016-06-15T01:16:17.484Z,14.18
2016-06-15T01:17:17.488Z,14.2
2016-06-15T01:18:17.493Z,14.24
2016-06-15T01:19:17.481Z,14.21
2016-06-15T01:20:18.016Z,14.24
2016-06-15T01:21:17.473Z,14.21
2016-06-15T01:22:17.477Z,14.22
2016-06-15T01:23:17.480Z,14.27
2016-06-15T01:24:17.624Z,14.33
2016-06-15T01:25:17.470Z,14.27
2016-06-15T01:26:17.911Z,14.25
2016-06-15T01:27:18.024Z,14.36
2016-06-15T01:28:17.823Z,14.25
2016-06-15T01:29:17.468Z,14.28
2016-06-15T01:30:17.314Z,14.27
2016-06-15T01:31:17.474Z,14.27
2016-06-15T01:32:17.460Z,14.22
2016-06-15T01:33:18.105Z,14.28
2016-06-15T01:34:17.654Z,14.2
2016-06-15T01:35:18.939Z,14.22
2016-06-15T01:36:17.457Z,14.22
2016-06-15T01:37:17.601Z,14.22
2016-06-15T01:38:17.448Z,14.21
2016-06-15T01:39:17.435Z,14.17
2016-06-15T01:40:17.438Z,14.17
2016-06-15T01:41:18.223Z,14.2
2016-06-15T01:42:17.429Z,14.22
2016-06-15T01:43:18.650Z,14.15
2016-06-15T01:44:17.436Z,14.22
2016-06-15T01:45:17.594Z,14.15
2016-06-15T01:46:17.425Z,14.12
2016-06-15T01:47:17.428Z,14.02
2016-06-15T01:48:17.635Z,14.02
2016-06-15T01:49:17.419Z,14.14
2016-06-15T01:50:18.172Z,14.09
2016-06-15T01:51:18.847Z,14.07
2016-06-15T01:52:18.710Z,14.06
2016-06-15T01:53:17.900Z,14.03
2016-06-15T01:54:17.419Z,13.99
2016-06-15T01:55:17.422Z,14.02
2016-06-15T01:56:17.425Z,14.02
2016-06-15T01:57:17.615Z,13.88
2016-06-15T01:58:17.400Z,13.97
2016-06-15T01:59:17.404Z,14.02
2016-06-15T02:00:17.407Z,14.07
2016-06-15T02:01:17.394Z,14.04
2016-06-15T02:02:17.397Z,14.06
2016-06-15T02:03:17.384Z,14.03
2016-06-15T02:04:17.387Z,14.07
2016-06-15T02:05:17.390Z,14.02
2016-06-15T02:06:17.393Z,13.96
2016-06-15T02:07:17.381Z,13.97
2016-06-15T02:08:17.384Z,13.91
2016-06-15T02:09:17.371Z,13.87
2016-06-15T02:10:17.374Z,13.87
2016-06-15T02:11:17.378Z,13.89
2016-06-15T02:12:17.381Z,13.89
2016-06-15T02:13:17.368Z,13.92
2016-06-15T02:14:17.371Z,13.88
2016-06-15T02:15:17.359Z,13.79
2016-06-15T02:16:17.206Z,13.79
2016-06-15T02:17:17.365Z,13.71
2016-06-15T02:18:17.196Z,13.77
2016-06-15T02:19:17.371Z,13.78
2016-06-15T02:20:17.374Z,13.75
2016-06-15T02:21:17.221Z,13.71
2016-06-15T02:22:17.350Z,13.7
2016-06-15T02:23:17.352Z,13.71
2016-06-15T02:24:17.340Z,13.67
2016-06-15T02:25:17.342Z,13.6
2016-06-15T02:26:17.345Z,13.69
2016-06-15T02:27:17.332Z,13.66
2016-06-15T02:28:17.336Z,13.66
2016-06-15T02:29:17.338Z,13.59
2016-06-15T02:30:17.327Z,13.6
2016-06-15T02:31:17.329Z,13.55
2016-06-15T02:32:17.333Z,13.64
2016-06-15T02:33:17.320Z,13.62
2016-06-15T02:34:17.323Z,13.52
2016-06-15T02:35:17.170Z,13.57
2016-06-15T02:36:17.313Z,13.59
2016-06-15T02:37:17.316Z,13.55
2016-06-15T02:38:17.304Z,13.57
2016-06-15T02:39:17.307Z,13.52
2016-06-15T02:40:17.310Z,13.55
2016-06-15T02:41:17.298Z,13.44
2016-06-15T02:42:17.300Z,13.57
2016-06-15T02:43:18.742Z,13.49
2016-06-15T02:45:17.341Z,13.54
2016-06-15T02:46:17.985Z,13.57
2016-06-15T02:47:17.285Z,13.52
2016-06-15T02:48:17.288Z,13.52
2016-06-15T02:49:17.275Z,13.59
2016-06-15T02:50:17.670Z,13.54
2016-06-15T02:51:17.281Z,13.6
2016-06-15T02:52:17.973Z,13.59
2016-06-15T02:53:31.444Z,13.6
2016-06-15T02:54:17.276Z,13.63
2016-06-15T02:55:17.826Z,13.59
2016-06-15T02:56:17.266Z,13.66
2016-06-15T02:57:17.331Z,13.71
2016-06-15T02:58:17.256Z,13.71
2016-06-15T02:59:17.837Z,13.71
2016-06-15T03:00:17.262Z,13.75
2016-06-15T03:01:17.672Z,13.78
2016-06-15T03:02:17.894Z,13.73
2016-06-15T03:03:17.646Z,13.81
2016-06-15T03:04:17.243Z,13.82
2016-06-15T03:05:17.246Z,13.89
2016-06-15T03:06:18.047Z,13.88
2016-06-15T03:07:17.238Z,13.88
2016-06-15T03:08:18.678Z,13.96
2016-06-15T03:09:18.634Z,13.96
2016-06-15T03:10:17.480Z,14.04
2016-06-15T03:11:18.625Z,14.03
2016-06-15T03:12:17.221Z,14.12
2016-06-15T03:13:18.037Z,14.21
2016-06-15T03:14:17.368Z,14.2
2016-06-15T03:15:17.293Z,14.27
2016-06-15T03:16:17.218Z,14.18
2016-06-15T03:17:17.065Z,14.24
2016-06-15T03:18:17.208Z,14.35
2016-06-15T03:19:17.211Z,14.43
2016-06-15T03:20:17.214Z,14.45
2016-06-15T03:21:17.217Z,14.55
2016-06-15T03:22:17.204Z,14.65
2016-06-15T03:23:17.208Z,14.7
2016-06-15T03:24:17.210Z,14.6
2016-06-15T03:25:17.199Z,14.73
2016-06-15T03:26:17.202Z,14.88
2016-06-15T03:27:17.205Z,14.88
2016-06-15T03:28:17.192Z,14.94
2016-06-15T03:29:17.195Z,14.96
2016-06-15T03:30:17.198Z,15.02
2016-06-15T03:31:17.186Z,15.16
2016-06-15T03:32:17.189Z,15.25
2016-06-15T03:33:17.192Z,15.27
2016-06-15T03:34:17.180Z,15.28
2016-06-15T03:35:17.182Z,15.47
2016-06-15T03:36:17.483Z,15.36
2016-06-15T03:37:17.189Z,15.49
2016-06-15T03:38:17.176Z,15.51
2016-06-15T03:39:17.179Z,15.53
2016-06-15T03:40:17.167Z,15.54
2016-06-15T03:41:17.170Z,15.67
2016-06-15T03:42:17.188Z,15.68
2016-06-15T03:43:17.176Z,15.78
2016-06-15T03:44:17.163Z,15.76
2016-06-15T03:45:17.183Z,15.83
2016-06-15T03:46:17.169Z,15.89
2016-06-15T03:47:17.157Z,15.93
2016-06-15T03:48:17.159Z,16.09
2016-06-15T03:49:17.163Z,16.08
2016-06-15T03:50:17.165Z,16.14
2016-06-15T03:51:16.857Z,16.17
2016-06-15T03:52:17.171Z,16.25
2016-06-15T03:53:17.160Z,16.34
2016-06-15T03:54:17.162Z,16.45
2016-06-15T03:55:17.166Z,16.57
2016-06-15T03:56:17.153Z,16.71
2016-06-15T03:57:17.156Z,16.81
2016-06-15T03:58:17.160Z,16.89
2016-06-15T03:59:17.162Z,17.15
2016-06-15T04:00:17.165Z,17.34
2016-06-15T04:01:17.560Z,17.54
2016-06-15T04:02:17.156Z,17.86
2016-06-15T04:03:17.160Z,18.14
2016-06-15T04:04:17.162Z,18.47
2016-06-15T04:05:17.150Z,18.82
2016-06-15T04:06:17.419Z,19.29
2016-06-15T04:07:17.172Z,19.48
2016-06-15T04:08:17.362Z,19.78
2016-06-15T04:09:17.162Z,20.05
2016-06-15T04:10:18.306Z,20.23
2016-06-15T04:11:31.340Z,20.58
2016-06-15T04:12:17.421Z,20.72
2016-06-15T04:13:31.486Z,21.12
2016-06-15T04:14:31.349Z,21.44
2016-06-15T04:15:17.165Z,21.72
2016-06-15T04:16:17.167Z,22.09
2016-06-15T04:17:17.187Z,22.47
2016-06-15T04:18:32.612Z,22.91
2016-06-15T04:19:17.193Z,23.17
2016-06-15T04:20:18.508Z,23.42
2016-06-15T04:21:17.058Z,23.53
2016-06-15T04:22:17.468Z,23.69
2016-06-15T04:23:17.205Z,23.83
2016-06-15T04:24:17.209Z,23.91
2016-06-15T04:25:17.211Z,24.02
2016-06-15T04:26:17.231Z,23.98
2016-06-15T04:27:17.404Z,23.9
2016-06-15T04:28:18.205Z,23.97
2016-06-15T04:29:18.083Z,23.93
2016-06-15T04:30:17.321Z,23.83
2016-06-15T04:31:17.246Z,23.78
2016-06-15T04:32:17.264Z,23.68
2016-06-15T04:33:17.736Z,23.47
2016-06-15T04:34:17.426Z,23.28
2016-06-15T04:35:17.273Z,23.25
2016-06-15T04:36:17.323Z,23.2
2016-06-15T04:37:17.279Z,23.09
2016-06-15T04:38:17.298Z,23.09
2016-06-15T04:39:17.285Z,22.94
2016-06-15T04:40:17.289Z,22.92
2016-06-15T04:41:17.307Z,22.79
2016-06-15T04:42:17.310Z,22.73
2016-06-15T04:43:17.313Z,22.76
2016-06-15T04:44:17.160Z,22.7
2016-06-15T04:45:17.319Z,22.54
2016-06-15T04:46:17.323Z,22.46
2016-06-15T04:47:17.325Z,22.36
2016-06-15T04:48:17.329Z,22.36
2016-06-15T04:49:17.332Z,22.43
2016-06-15T04:50:17.335Z,22.36
2016-06-15T04:51:17.353Z,22.36
2016-06-15T04:52:17.356Z,22.4
2016-06-15T04:53:17.359Z,22.43
2016-06-15T04:54:17.362Z,22.52
2016-06-15T04:55:17.365Z,22.52
2016-06-15T04:56:17.368Z,22.57
2016-06-15T04:57:17.372Z,22.6
2016-06-15T04:58:17.374Z,22.6
2016-06-15T04:59:17.378Z,22.6
2016-06-15T05:00:17.396Z,22.47
2016-06-15T05:01:17.400Z,22.57
2016-06-15T05:02:17.387Z,22.49
2016-06-15T05:03:17.390Z,22.49
2016-06-15T05:04:17.409Z,22.42
2016-06-15T05:05:17.412Z,22.35
2016-06-15T05:06:17.649Z,22.25
2016-06-15T05:07:17.418Z,22.17
2016-06-15T05:08:17.422Z,22.06
2016-06-15T05:09:17.424Z,21.96
2016-06-15T05:10:17.428Z,21.98
2016-06-15T05:11:17.430Z,21.9
2016-06-15T05:12:17.434Z,21.92
2016-06-15T05:13:17.328Z,21.83
2016-06-15T05:14:17.456Z,21.94
2016-06-15T05:15:17.443Z,21.91
2016-06-15T05:16:17.446Z,21.94
2016-06-15T05:17:17.465Z,21.82
2016-06-15T05:18:17.468Z,21.82
2016-06-15T05:19:17.472Z,21.62
2016-06-15T05:20:17.724Z,21.71
2016-06-15T05:21:17.618Z,21.68
2016-06-15T05:22:17.870Z,21.44
2016-06-15T05:23:17.484Z,21.43
2016-06-15T05:24:17.486Z,21.37
2016-06-15T05:25:17.646Z,21.4
2016-06-15T05:26:17.539Z,21.5
2016-06-15T05:27:17.339Z,21.38
2016-06-15T05:28:17.499Z,21.44
2016-06-15T05:29:19.080Z,21.38
2016-06-15T05:30:17.505Z,21.4
2016-06-15T05:31:17.508Z,21.4
2016-06-15T05:32:18.261Z,21.32
2016-06-15T05:33:17.514Z,21.16
2016-06-15T05:34:17.517Z,21.14
2016-06-15T05:35:17.521Z,21.12
2016-06-15T05:36:17.960Z,21.01
2016-06-15T05:37:17.526Z,21.09
2016-06-15T05:38:18.372Z,20.99
2016-06-15T05:39:18.610Z,20.99
2016-06-15T05:40:18.488Z,20.89
2016-06-15T05:41:17.554Z,20.76
2016-06-15T05:42:18.042Z,20.8
2016-06-15T05:43:17.544Z,20.73
2016-06-15T05:44:17.641Z,20.67
2016-06-15T05:45:18.332Z,20.69
2016-06-15T05:47:19.025Z,20.67
2016-06-15T05:48:17.561Z,20.58
2016-06-15T05:49:18.188Z,20.67
2016-06-15T05:50:17.878Z,20.55
2016-06-15T05:51:18.116Z,20.51
2016-06-15T05:52:17.620Z,20.55
2016-06-15T05:53:17.590Z,20.52
2016-06-15T05:54:17.579Z,20.51
2016-06-15T05:55:17.581Z,20.54
2016-06-15T05:56:17.585Z,20.57
2016-06-15T05:57:17.588Z,20.54
2016-06-15T05:58:17.591Z,20.51
2016-06-15T05:59:17.578Z,20.52
2016-06-15T06:00:17.597Z,20.54
2016-06-15T06:01:17.584Z,20.51
2016-06-15T06:02:17.588Z,20.5
2016-06-15T06:03:17.590Z,20.43
2016-06-15T06:04:17.610Z,20.41
2016-06-15T06:05:17.627Z,20.41
2016-06-15T06:06:17.833Z,20.41
2016-06-15T06:07:17.603Z,20.38
2016-06-15T06:08:17.606Z,20.38
2016-06-15T06:09:17.624Z,20.42
2016-06-15T06:10:17.612Z,20.36
2016-06-15T06:11:17.615Z,20.32
2016-06-15T06:12:17.618Z,20.28
2016-06-15T06:13:17.622Z,20.29
2016-06-15T06:14:17.608Z,20.21
2016-06-15T06:15:17.628Z,20.32
2016-06-15T06:16:17.614Z,20.29
2016-06-15T06:17:17.618Z,20.2
2016-06-15T06:18:17.620Z,20.06
2016-06-15T06:19:17.484Z,20.17
2016-06-15T06:20:17.627Z,20.11
2016-06-15T06:21:17.724Z,20.06
2016-06-15T06:22:17.633Z,20.05
2016-06-15T06:23:17.636Z,20.02
2016-06-15T06:24:17.639Z,19.95
2016-06-15T06:25:17.642Z,19.94
2016-06-15T06:26:17.645Z,19.92
2016-06-15T06:27:17.648Z,19.91
2016-06-15T06:28:17.636Z,19.83
2016-06-15T06:29:17.640Z,19.88
2016-06-15T06:30:17.642Z,19.84
2016-06-15T06:31:17.646Z,19.76
2016-06-15T06:32:17.663Z,19.69
2016-06-15T06:33:17.496Z,19.76
2016-06-15T06:34:17.655Z,19.71
2016-06-15T06:35:17.658Z,19.76
2016-06-15T06:36:17.739Z,19.84
2016-06-15T06:37:17.663Z,19.87
2016-06-15T06:38:19.011Z,19.83
2016-06-15T06:39:17.920Z,19.88
2016-06-15T06:40:18.329Z,19.91
2016-06-15T06:41:31.848Z,19.94
2016-06-15T06:42:17.663Z,19.94
2016-06-15T06:43:17.979Z,19.98
2016-06-15T06:44:17.372Z,19.98
2016-06-15T06:45:17.892Z,19.95
2016-06-15T06:46:17.691Z,19.87
2016-06-15T06:47:18.679Z,19.91
2016-06-15T06:48:18.650Z,19.91
2016-06-15T06:49:17.685Z,19.83
2016-06-15T06:50:17.985Z,19.88
2016-06-15T06:51:18.597Z,19.95
2016-06-15T06:52:17.679Z,19.95
2016-06-15T06:53:17.885Z,19.95
2016-06-15T06:54:17.685Z,19.95
2016-06-15T06:55:18.626Z,19.88
2016-06-15T06:56:18.800Z,20.03
2016-06-15T06:57:18.195Z,19.96
2016-06-15T06:58:17.697Z,20.06
2016-06-15T06:59:17.701Z,20.1
2016-06-15T07:00:17.797Z,20.13
2016-06-15T07:01:17.550Z,20.02
2016-06-15T07:02:17.897Z,20.05
2016-06-15T07:03:17.697Z,20.08
2016-06-15T07:04:18.059Z,20.06
2016-06-15T07:05:18.484Z,20.05
2016-06-15T07:06:20.222Z,20.03
2016-06-15T07:07:17.568Z,20.05
2016-06-15T07:08:18.149Z,20.05
2016-06-15T07:09:18.199Z,20.1
2016-06-15T07:10:17.952Z,20.08
2016-06-15T07:11:17.722Z,20.17
2016-06-15T07:12:17.724Z,20.24
2016-06-15T07:13:17.712Z,20.23
2016-06-15T07:14:17.714Z,20.21
2016-06-15T07:15:17.718Z,20.32
2016-06-15T07:16:17.737Z,20.39
2016-06-15T07:17:17.740Z,20.39
2016-06-15T07:18:17.727Z,20.32
2016-06-15T07:19:17.730Z,20.38
2016-06-15T07:20:17.733Z,20.39
2016-06-15T07:21:17.909Z,20.38
2016-06-15T07:22:17.786Z,20.39
2016-06-15T07:23:17.742Z,20.38
2016-06-15T07:24:17.745Z,20.36
2016-06-15T07:25:17.765Z,20.38
2016-06-15T07:26:17.751Z,20.29
2016-06-15T07:27:17.740Z,20.32
2016-06-15T07:28:17.743Z,20.33
2016-06-15T07:29:17.761Z,20.21
2016-06-15T07:30:17.749Z,20.18
2016-06-15T07:31:17.752Z,20.11
2016-06-15T07:32:17.755Z,20.2
2016-06-15T07:33:17.758Z,20.23
2016-06-15T07:34:17.620Z,20.06
2016-06-15T07:35:17.764Z,20.13
2016-06-15T07:36:17.767Z,20.02
2016-06-15T07:37:17.770Z,20.11
2016-06-15T07:38:17.773Z,20.08
2016-06-15T07:39:17.760Z,20.02
2016-06-15T07:40:17.623Z,19.96
2016-06-15T07:41:17.783Z,20.05
2016-06-15T07:42:17.769Z,19.86
2016-06-15T07:43:17.789Z,19.96
2016-06-15T07:44:17.776Z,20.02
2016-06-15T07:45:17.779Z,20.06
2016-06-15T07:46:17.782Z,20.02
2016-06-15T07:47:17.785Z,20.05
2016-06-15T07:48:17.788Z,20.08
2016-06-15T07:49:17.791Z,20.1
2016-06-15T07:50:17.794Z,20.08
2016-06-15T07:51:17.797Z,20.06
2016-06-15T07:52:18.332Z,20.08
2016-06-15T07:53:17.787Z,20.06
2016-06-15T07:54:17.790Z,20.17
2016-06-15T07:55:17.810Z,20.11
2016-06-15T07:56:17.797Z,20.24
2016-06-15T07:57:31.988Z,20.26
2016-06-15T07:58:47.052Z,20.23
2016-06-15T07:59:17.806Z,20.18
2016-06-15T08:00:31.997Z,20.31
2016-06-15T08:01:17.906Z,20.33
2016-06-15T08:02:17.815Z,20.32
2016-06-15T08:03:17.865Z,20.42
2016-06-15T08:04:17.806Z,20.36
2016-06-15T08:05:17.824Z,20.5
2016-06-15T08:06:32.000Z,20.61
2016-06-15T08:07:18.174Z,20.62
2016-06-15T08:08:17.819Z,20.64
2016-06-15T08:09:18.634Z,20.52
2016-06-15T08:10:17.839Z,20.57
2016-06-15T08:11:18.078Z,20.62
2016-06-15T08:12:17.830Z,20.66
2016-06-15T08:13:18.474Z,20.57
2016-06-15T08:14:18.009Z,20.61
2016-06-15T08:15:19.215Z,20.61
2016-06-15T08:16:17.844Z,20.59
2016-06-15T08:17:18.736Z,20.61
2016-06-15T08:18:18.505Z,20.59
2016-06-15T08:19:17.992Z,20.67
2016-06-15T08:20:17.855Z,20.61
2016-06-15T08:21:17.843Z,20.66
2016-06-15T08:22:20.767Z,20.64
2016-06-15T08:23:18.834Z,20.55
2016-06-15T08:24:18.446Z,20.51
2016-06-15T08:25:19.246Z,20.39
2016-06-15T08:26:17.858Z,20.38
2016-06-15T08:27:17.877Z,20.29
2016-06-15T08:28:18.333Z,20.28
2016-06-15T08:29:17.711Z,20.21
2016-06-15T08:30:17.886Z,20.29
2016-06-15T08:31:17.873Z,20.23
2016-06-15T08:32:17.877Z,20.28
2016-06-15T08:33:17.879Z,20.14
2016-06-15T08:34:17.883Z,20.16
2016-06-15T08:35:17.886Z,20.24
2016-06-15T08:36:19.186Z,20.06
2016-06-15T08:37:17.892Z,20.01
2016-06-15T08:38:17.894Z,20.02
2016-06-15T08:39:17.898Z,20.08
2016-06-15T08:40:17.886Z,20.05
2016-06-15T08:41:17.732Z,19.95
2016-06-15T08:42:17.735Z,19.94
2016-06-15T08:43:17.895Z,19.94
2016-06-15T08:44:17.898Z,20.03
2016-06-15T08:45:17.745Z,20.01
2016-06-15T08:46:17.904Z,19.95
2016-06-15T08:47:17.908Z,20.05
2016-06-15T08:48:17.910Z,19.95
2016-06-15T08:49:17.913Z,19.99
2016-06-15T08:50:17.932Z,20.01
2016-06-15T08:51:17.934Z,20.08
2016-06-15T08:52:18.266Z,20.06
2016-06-15T08:53:17.925Z,20.08
2016-06-15T08:54:17.929Z,20.1
2016-06-15T08:55:17.916Z,20.05
2016-06-15T08:56:17.919Z,19.92
2016-06-15T08:57:17.938Z,19.86
2016-06-15T08:58:17.925Z,19.91
2016-06-15T08:59:17.928Z,19.88
2016-06-15T09:00:25.009Z,19.95
2016-06-15T09:01:24.966Z,19.98
2016-06-15T09:02:17.935Z,19.88
2016-06-15T09:03:17.922Z,19.78
2016-06-15T09:04:17.785Z,19.78
2016-06-15T09:05:17.788Z,19.73
2016-06-15T09:06:17.947Z,19.73
2016-06-15T09:07:18.169Z,19.62
2016-06-15T09:08:17.937Z,19.59
2016-06-15T09:09:17.941Z,19.5
2016-06-15T09:10:17.787Z,19.43
2016-06-15T09:11:17.962Z,19.28
2016-06-15T09:12:17.950Z,19.18
2016-06-15T09:13:25.026Z,19.1
2016-06-15T09:14:17.934Z,18.99
2016-06-15T09:15:18.295Z,19.02
2016-06-15T09:16:18.846Z,18.99
2016-06-15T09:17:33.021Z,18.98
2016-06-15T09:18:19.103Z,18.95
2016-06-15T09:19:18.558Z,18.98
2016-06-15T09:20:17.952Z,18.91
2016-06-15T09:21:17.956Z,18.92
2016-06-15T09:22:18.270Z,18.88
2016-06-15T09:23:17.962Z,18.94
2016-06-15T09:24:18.558Z,18.94
2016-06-15T09:25:17.796Z,18.91
2016-06-15T09:27:17.661Z,18.94
2016-06-15T09:28:17.977Z,18.92
2016-06-15T09:29:18.271Z,18.92
2016-06-15T09:30:17.961Z,18.95
2016-06-15T09:31:18.121Z,18.94
2016-06-15T09:32:19.468Z,18.9
2016-06-15T09:33:18.737Z,18.81
2016-06-15T09:34:18.895Z,18.75
2016-06-15T09:35:17.977Z,18.81
2016-06-15T09:36:18.543Z,18.82
2016-06-15T09:37:17.967Z,18.85
2016-06-15T09:38:17.970Z,18.84
2016-06-15T09:39:17.973Z,18.81
2016-06-15T09:40:17.961Z,18.82
2016-06-15T09:41:20.058Z,18.81
2016-06-15T09:42:17.983Z,18.87
2016-06-15T09:43:18.455Z,18.87
2016-06-15T09:44:18.161Z,18.76
2016-06-15T09:45:18.821Z,18.81
2016-06-15T09:46:17.979Z,18.81
2016-06-15T09:47:17.842Z,18.84
2016-06-15T09:48:17.970Z,18.81
2016-06-15T09:49:17.849Z,18.85
2016-06-15T09:50:17.991Z,18.85
2016-06-15T09:51:17.855Z,18.9
2016-06-15T09:52:18.873Z,18.98
2016-06-15T09:53:18.001Z,19.04
2016-06-15T09:54:17.988Z,19.06
2016-06-15T09:55:17.992Z,19.14
2016-06-15T09:56:17.995Z,19.18
2016-06-15T09:57:17.982Z,19.13
2016-06-15T09:58:17.985Z,19.25
2016-06-15T09:59:17.989Z,19.23
2016-06-15T10:00:17.991Z,19.16
2016-06-15T10:01:17.994Z,19.28
2016-06-15T10:02:17.997Z,19.22
2016-06-15T10:03:17.844Z,19.28
2016-06-15T10:04:18.022Z,19.4
2016-06-15T10:05:18.049Z,19.43
2016-06-15T10:06:18.092Z,19.48
2016-06-15T10:07:18.808Z,19.63
2016-06-15T10:08:18.194Z,19.65
2016-06-15T10:09:18.225Z,19.74
2016-06-15T10:10:18.212Z,19.84
2016-06-15T10:11:18.243Z,19.88
2016-06-15T10:12:18.261Z,19.91
2016-06-15T10:13:18.264Z,20.06
2016-06-15T10:14:18.136Z,20.06
2016-06-15T10:15:18.144Z,20.14
2016-06-15T10:16:31.683Z,20.29
2016-06-15T10:17:18.302Z,20.33
2016-06-15T10:18:25.653Z,20.35
2016-06-15T10:19:18.317Z,20.5
2016-06-15T10:20:18.165Z,20.51
2016-06-15T10:21:18.327Z,20.55
2016-06-15T10:22:18.691Z,20.66
2016-06-15T10:23:18.337Z,20.61
2016-06-15T10:24:18.200Z,20.57
2016-06-15T10:25:18.345Z,20.64
2016-06-15T10:26:18.364Z,20.62
2016-06-15T10:27:18.351Z,20.66
2016-06-15T10:28:18.370Z,20.62
2016-06-15T10:29:18.359Z,20.73
2016-06-15T10:30:18.362Z,20.79
2016-06-15T10:31:18.365Z,20.85
2016-06-15T10:32:18.369Z,20.76
2016-06-15T10:33:18.372Z,20.94
2016-06-15T10:34:18.673Z,20.94
2016-06-15T10:35:18.441Z,20.99
2016-06-15T10:36:28.335Z,21.03
2016-06-15T10:37:42.479Z,21.1
2016-06-15T10:38:40.138Z,21.16
2016-06-15T10:39:36.016Z,21.13
2016-06-15T10:40:36.863Z,21.19
2016-06-15T10:41:30.898Z,21.22
2016-06-15T10:42:41.635Z,21.21
2016-06-15T10:43:32.435Z,21.37
2016-06-15T10:44:19.313Z,21.35
2016-06-15T10:45:19.207Z,21.46
2016-06-15T10:46:29.070Z,21.56
2016-06-15T10:47:31.150Z,21.64
2016-06-15T10:48:49.606Z,21.77
2016-06-15T10:49:38.470Z,21.8
2016-06-15T10:50:43.973Z,21.96
2016-06-15T10:51:38.538Z,22
2016-06-15T10:53:19.685Z,22.07
2016-06-15T10:55:15.363Z,21.99
2016-06-15T10:55:56.988Z,22.09
2016-06-15T10:56:56.991Z,22.12
2016-06-15T10:57:56.994Z,22.22
2016-06-15T10:58:56.997Z,22.31
2016-06-15T10:59:58.704Z,22.37
2016-06-15T11:00:57.004Z,22.46
2016-06-15T11:01:57.007Z,22.49
2016-06-15T11:02:58.166Z,22.43
2016-06-15T11:03:57.028Z,22.47
2016-06-15T11:04:57.016Z,22.51
2016-06-15T11:05:57.019Z,22.51
2016-06-15T11:06:57.069Z,22.57
2016-06-15T11:07:56.900Z,22.47
2016-06-15T11:08:57.059Z,22.67
2016-06-15T11:09:56.891Z,22.65
2016-06-15T11:10:57.049Z,22.67
2016-06-15T11:11:57.069Z,22.79
2016-06-15T11:12:56.900Z,22.85
2016-06-15T11:13:57.059Z,22.85
2016-06-15T11:14:57.077Z,22.98
2016-06-15T11:15:57.081Z,22.95
2016-06-15T11:16:57.084Z,22.94
2016-06-15T11:17:57.087Z,22.92
2016-06-15T11:18:57.091Z,23.01
2016-06-15T11:19:57.093Z,22.92
2016-06-15T11:20:57.097Z,22.97
2016-06-15T11:21:57.834Z,22.95
2016-06-15T11:22:57.133Z,22.97
2016-06-15T11:23:57.120Z,22.94
2016-06-15T11:24:57.124Z,22.88
2016-06-15T11:25:57.142Z,22.9
2016-06-15T11:26:57.130Z,22.86
2016-06-15T11:27:57.274Z,22.77
2016-06-15T11:28:57.135Z,22.67
2016-06-15T11:29:57.139Z,22.6
2016-06-15T11:30:57.142Z,22.54
2016-06-15T11:31:57.145Z,22.57
2016-06-15T11:32:57.148Z,22.64
2016-06-15T11:33:56.855Z,22.61
2016-06-15T11:34:57.170Z,22.49
2016-06-15T11:35:57.174Z,22.46
2016-06-15T11:36:58.958Z,22.52
2016-06-15T11:37:57.195Z,22.47
2016-06-15T11:38:57.182Z,22.47
2016-06-15T11:39:57.185Z,22.61
2016-06-15T11:40:57.204Z,22.62
2016-06-15T11:41:57.208Z,22.67
2016-06-15T11:42:57.195Z,22.6
2016-06-15T11:43:57.214Z,22.57
2016-06-15T11:44:57.201Z,22.62
2016-06-15T11:45:57.204Z,22.61
2016-06-15T11:46:57.067Z,22.6
2016-06-15T11:47:57.226Z,22.62
2016-06-15T11:48:57.229Z,22.68
2016-06-15T11:49:57.248Z,22.61
2016-06-15T11:50:57.235Z,22.68
2016-06-15T11:51:57.536Z,22.72
2016-06-15T11:52:57.914Z,22.7
2016-06-15T11:53:57.260Z,22.76
2016-06-15T11:54:57.404Z,22.86
2016-06-15T11:55:57.312Z,22.86
2016-06-15T11:56:57.566Z,22.91
2016-06-15T11:57:57.272Z,22.98
2016-06-15T11:58:57.275Z,23.05
2016-06-15T11:59:57.279Z,22.98
2016-06-15T12:00:57.297Z,22.92
2016-06-15T12:01:58.645Z,22.97
2016-06-15T12:03:12.929Z,22.94
2016-06-15T12:03:57.698Z,22.98
2016-06-15T12:04:57.310Z,22.98
2016-06-15T12:05:57.312Z,23.01
2016-06-15T12:06:57.316Z,22.94
2016-06-15T12:07:58.084Z,23.01
2016-06-15T12:08:58.119Z,22.94
2016-06-15T12:09:57.747Z,22.9
2016-06-15T12:10:58.281Z,22.92
2016-06-15T12:11:58.018Z,22.95
2016-06-15T12:12:57.256Z,22.94
2016-06-15T12:13:57.774Z,22.95
2016-06-15T12:14:57.716Z,22.98
2016-06-15T12:15:57.656Z,22.94
2016-06-15T12:16:57.362Z,23.09
2016-06-15T12:17:59.365Z,22.98
2016-06-15T12:18:58.509Z,23.02
2016-06-15T12:19:57.387Z,23.09
2016-06-15T12:20:57.906Z,23.04
2016-06-15T12:21:58.112Z,23.16
2016-06-15T12:22:57.880Z,23.15
2016-06-15T12:23:57.415Z,23.22
2016-06-15T12:24:57.746Z,23.32
2016-06-15T12:25:57.405Z,23.35
2016-06-15T12:26:57.408Z,23.47
2016-06-15T12:27:57.411Z,23.55
2016-06-15T12:28:57.414Z,23.58
2016-06-15T12:29:57.434Z,23.65
2016-06-15T12:30:57.421Z,23.69
2016-06-15T12:31:57.440Z,23.8
2016-06-15T12:32:57.442Z,23.93
2016-06-15T12:33:57.289Z,23.9
2016-06-15T12:34:57.449Z,24
2016-06-15T12:35:57.530Z,24.12
2016-06-15T12:36:57.454Z,24.08
2016-06-15T12:37:58.630Z,24.13
2016-06-15T12:38:57.476Z,24.06
2016-06-15T12:39:57.479Z,24.09
2016-06-15T12:40:57.483Z,24.1
2016-06-15T12:41:57.517Z,24.12
2016-06-15T12:42:57.332Z,24.18
2016-06-15T12:43:57.491Z,24.09
2016-06-15T12:44:57.511Z,24.18
2016-06-15T12:45:57.530Z,24.08
2016-06-15T12:46:57.517Z,24.13
2016-06-15T12:47:57.551Z,24.16
2016-06-15T12:48:57.522Z,24.1
2016-06-15T12:49:57.526Z,24.03
2016-06-15T12:50:57.545Z,23.94
2016-06-15T12:51:57.548Z,23.84
2016-06-15T12:52:57.551Z,23.83
2016-06-15T12:53:57.554Z,23.73
2016-06-15T12:54:57.573Z,23.66
2016-06-15T12:55:57.575Z,23.65
2016-06-15T12:56:57.563Z,23.51
2016-06-15T12:57:57.581Z,23.48
2016-06-15T12:58:57.585Z,23.46
2016-06-15T12:59:57.838Z,23.47